sensor_id;sensor_type;location;lat;lon;timestamp;P1;durP1;ratioP1;P2;durP2;ratioP2
17482;SDS011;8858;52.308;20.994;2022-10-23T00:02:00;27.93;;;20.90;;
17482;SDS011;8858;52.308;20.994;2022-10-23T00:04:29;27.73;;;20.83;;
17482;SDS011;8858;52.308;20.994;2022-10-23T00:06:59;30.17;;;21.33;;
17482;SDS011;8858;52.308;20.994;2022-10-23T00:09:28;28.67;;;20.47;;
17482;SDS011;8858;52.308;20.994;2022-10-23T00:11:58;28.73;;;21.30;;
17482;SDS011;8858;52.308;20.994;2022-10-23T00:14:26;26.20;;;20.67;;
17482;SDS011;8858;52.308;20.994;2022-10-23T00:16:56;28.47;;;21.13;;
17482;SDS011;8858;52.308;20.994;2022-10-23T00:19:25;28.33;;;19.87;;
17482;SDS011;8858;52.308;20.994;2022-10-23T00:21:54;27.70;;;21.13;;
17482;SDS011;8858;52.308;20.994;2022-10-23T00:24:23;29.10;;;22.10;;
17482;SDS011;8858;52.308;20.994;2022-10-23T00:26:55;26.80;;;22.00;;
17482;SDS011;8858;52.308;20.994;2022-10-23T00:29:24;28.17;;;21.27;;
17482;SDS011;8858;52.308;20.994;2022-10-23T00:31:57;29.63;;;22.67;;
17482;SDS011;8858;52.308;20.994;2022-10-23T00:34:26;28.33;;;21.97;;
17482;SDS011;8858;52.308;20.994;2022-10-23T00:36:55;28.37;;;23.03;;
17482;SDS011;8858;52.308;20.994;2022-10-23T00:39:24;28.97;;;22.20;;
17482;SDS011;8858;52.308;20.994;2022-10-23T00:41:53;29.63;;;22.90;;
17482;SDS011;8858;52.308;20.994;2022-10-23T00:47:31;32.40;;;24.13;;
17482;SDS011;8858;52.308;20.994;2022-10-23T00:50:00;30.90;;;23.87;;
17482;SDS011;8858;52.308;20.994;2022-10-23T00:52:28;30.07;;;23.93;;
17482;SDS011;8858;52.308;20.994;2022-10-23T00:54:57;30.60;;;24.87;;
17482;SDS011;8858;52.308;20.994;2022-10-23T00:57:26;33.03;;;23.17;;
17482;SDS011;8858;52.308;20.994;2022-10-23T00:59:55;30.20;;;24.27;;
17482;SDS011;8858;52.308;20.994;2022-10-23T01:02:24;30.87;;;25.00;;
17482;SDS011;8858;52.308;20.994;2022-10-23T01:04:57;32.03;;;23.80;;
17482;SDS011;8858;52.308;20.994;2022-10-23T01:07:27;32.93;;;25.03;;
17482;SDS011;8858;52.308;20.994;2022-10-23T01:10:03;33.17;;;25.60;;
17482;SDS011;8858;52.308;20.994;2022-10-23T01:12:39;33.23;;;24.47;;
17482;SDS011;8858;52.308;20.994;2022-10-23T01:15:19;31.47;;;23.97;;
17482;SDS011;8858;52.308;20.994;2022-10-23T01:17:54;33.30;;;25.13;;
17482;SDS011;8858;52.308;20.994;2022-10-23T01:20:34;32.77;;;24.57;;
17482;SDS011;8858;52.308;20.994;2022-10-23T01:23:14;34.93;;;24.60;;
17482;SDS011;8858;52.308;20.994;2022-10-23T01:29:00;36.50;;;24.47;;
17482;SDS011;8858;52.308;20.994;2022-10-23T01:31:34;35.83;;;26.23;;
17482;SDS011;8858;52.308;20.994;2022-10-23T01:34:08;35.27;;;24.13;;
17482;SDS011;8858;52.308;20.994;2022-10-23T01:36:43;40.37;;;25.27;;
17482;SDS011;8858;52.308;20.994;2022-10-23T01:39:16;37.47;;;25.87;;
17482;SDS011;8858;52.308;20.994;2022-10-23T01:41:51;38.33;;;25.70;;
17482;SDS011;8858;52.308;20.994;2022-10-23T01:44:28;37.70;;;26.00;;
17482;SDS011;8858;52.308;20.994;2022-10-23T01:47:03;41.73;;;26.33;;
17482;SDS011;8858;52.308;20.994;2022-10-23T01:49:51;37.53;;;25.97;;
17482;SDS011;8858;52.308;20.994;2022-10-23T01:52:23;40.47;;;27.30;;
17482;SDS011;8858;52.308;20.994;2022-10-23T01:54:56;43.07;;;29.63;;
17482;SDS011;8858;52.308;20.994;2022-10-23T01:57:31;40.67;;;28.03;;
17482;SDS011;8858;52.308;20.994;2022-10-23T02:00:08;42.97;;;28.33;;
17482;SDS011;8858;52.308;20.994;2022-10-23T02:02:52;40.83;;;27.53;;
17482;SDS011;8858;52.308;20.994;2022-10-23T02:05:31;42.73;;;28.97;;
17482;SDS011;8858;52.308;20.994;2022-10-23T02:08:02;40.13;;;29.23;;
17482;SDS011;8858;52.308;20.994;2022-10-23T02:10:31;42.00;;;27.80;;
17482;SDS011;8858;52.308;20.994;2022-10-23T02:13:08;41.63;;;29.47;;
17482;SDS011;8858;52.308;20.994;2022-10-23T02:15:44;40.03;;;28.17;;
17482;SDS011;8858;52.308;20.994;2022-10-23T02:18:17;44.17;;;28.00;;
17482;SDS011;8858;52.308;20.994;2022-10-23T02:20:56;45.33;;;28.30;;
17482;SDS011;8858;52.308;20.994;2022-10-23T02:23:31;40.40;;;27.83;;
17482;SDS011;8858;52.308;20.994;2022-10-23T02:26:05;44.70;;;27.93;;
17482;SDS011;8858;52.308;20.994;2022-10-23T02:28:42;45.57;;;28.20;;
17482;SDS011;8858;52.308;20.994;2022-10-23T02:31:18;44.77;;;28.37;;
17482;SDS011;8858;52.308;20.994;2022-10-23T02:33:51;44.23;;;28.43;;
17482;SDS011;8858;52.308;20.994;2022-10-23T02:36:21;48.30;;;29.33;;
17482;SDS011;8858;52.308;20.994;2022-10-23T02:38:49;43.20;;;29.37;;
17482;SDS011;8858;52.308;20.994;2022-10-23T02:41:26;44.23;;;29.20;;
17482;SDS011;8858;52.308;20.994;2022-10-23T02:44:07;46.33;;;29.47;;
17482;SDS011;8858;52.308;20.994;2022-10-23T02:46:48;44.50;;;30.73;;
17482;SDS011;8858;52.308;20.994;2022-10-23T02:49:22;43.67;;;30.07;;
17482;SDS011;8858;52.308;20.994;2022-10-23T02:52:00;46.87;;;29.53;;
17482;SDS011;8858;52.308;20.994;2022-10-23T02:54:41;47.20;;;31.67;;
17482;SDS011;8858;52.308;20.994;2022-10-23T02:57:21;47.07;;;31.73;;
17482;SDS011;8858;52.308;20.994;2022-10-23T02:59:57;44.57;;;30.20;;
17482;SDS011;8858;52.308;20.994;2022-10-23T03:02:32;47.43;;;31.77;;
17482;SDS011;8858;52.308;20.994;2022-10-23T03:05:12;47.40;;;29.60;;
17482;SDS011;8858;52.308;20.994;2022-10-23T03:07:44;45.70;;;31.03;;
17482;SDS011;8858;52.308;20.994;2022-10-23T03:10:15;47.30;;;30.70;;
17482;SDS011;8858;52.308;20.994;2022-10-23T03:12:44;48.77;;;33.10;;
17482;SDS011;8858;52.308;20.994;2022-10-23T03:15:15;41.80;;;30.60;;
17482;SDS011;8858;52.308;20.994;2022-10-23T03:17:51;42.57;;;29.73;;
17482;SDS011;8858;52.308;20.994;2022-10-23T03:20:20;52.33;;;31.50;;
17482;SDS011;8858;52.308;20.994;2022-10-23T03:22:48;45.63;;;31.20;;
17482;SDS011;8858;52.308;20.994;2022-10-23T03:25:17;45.17;;;30.27;;
17482;SDS011;8858;52.308;20.994;2022-10-23T03:27:46;50.27;;;31.20;;
17482;SDS011;8858;52.308;20.994;2022-10-23T03:30:15;48.13;;;31.50;;
17482;SDS011;8858;52.308;20.994;2022-10-23T03:32:48;49.13;;;31.10;;
17482;SDS011;8858;52.308;20.994;2022-10-23T03:35:18;49.57;;;32.43;;
17482;SDS011;8858;52.308;20.994;2022-10-23T03:37:47;48.93;;;31.87;;
17482;SDS011;8858;52.308;20.994;2022-10-23T03:40:19;44.53;;;31.53;;
17482;SDS011;8858;52.308;20.994;2022-10-23T03:42:48;48.40;;;32.80;;
17482;SDS011;8858;52.308;20.994;2022-10-23T03:45:18;47.37;;;33.00;;
17482;SDS011;8858;52.308;20.994;2022-10-23T03:47:47;46.60;;;31.43;;
17482;SDS011;8858;52.308;20.994;2022-10-23T03:50:18;48.70;;;31.20;;
17482;SDS011;8858;52.308;20.994;2022-10-23T03:52:52;46.93;;;31.97;;
17482;SDS011;8858;52.308;20.994;2022-10-23T03:55:21;49.47;;;31.93;;
17482;SDS011;8858;52.308;20.994;2022-10-23T03:57:51;48.43;;;31.40;;
17482;SDS011;8858;52.308;20.994;2022-10-23T04:00:20;44.83;;;32.70;;
17482;SDS011;8858;52.308;20.994;2022-10-23T04:02:49;43.70;;;30.97;;
17482;SDS011;8858;52.308;20.994;2022-10-23T04:05:20;45.70;;;31.50;;
17482;SDS011;8858;52.308;20.994;2022-10-23T04:07:53;41.27;;;30.23;;
17482;SDS011;8858;52.308;20.994;2022-10-23T04:10:25;43.23;;;31.93;;
17482;SDS011;8858;52.308;20.994;2022-10-23T04:12:54;46.83;;;31.97;;
17482;SDS011;8858;52.308;20.994;2022-10-23T04:15:23;43.80;;;31.30;;
17482;SDS011;8858;52.308;20.994;2022-10-23T04:17:51;41.90;;;30.53;;
17482;SDS011;8858;52.308;20.994;2022-10-23T04:20:21;39.83;;;29.70;;
17482;SDS011;8858;52.308;20.994;2022-10-23T04:22:53;41.47;;;29.20;;
17482;SDS011;8858;52.308;20.994;2022-10-23T04:25:22;37.30;;;28.20;;
17482;SDS011;8858;52.308;20.994;2022-10-23T04:27:50;47.40;;;30.80;;
17482;SDS011;8858;52.308;20.994;2022-10-23T04:30:19;43.00;;;30.33;;
17482;SDS011;8858;52.308;20.994;2022-10-23T04:32:48;37.67;;;28.07;;
17482;SDS011;8858;52.308;20.994;2022-10-23T04:35:22;39.53;;;28.60;;
17482;SDS011;8858;52.308;20.994;2022-10-23T04:37:51;39.23;;;28.90;;
17482;SDS011;8858;52.308;20.994;2022-10-23T04:40:21;39.17;;;28.90;;
17482;SDS011;8858;52.308;20.994;2022-10-23T04:42:53;37.17;;;27.93;;
17482;SDS011;8858;52.308;20.994;2022-10-23T04:45:22;42.13;;;30.47;;
17482;SDS011;8858;52.308;20.994;2022-10-23T04:47:52;42.03;;;28.67;;
17482;SDS011;8858;52.308;20.994;2022-10-23T04:50:24;43.20;;;29.37;;
17482;SDS011;8858;52.308;20.994;2022-10-23T04:53:28;40.80;;;30.10;;
17482;SDS011;8858;52.308;20.994;2022-10-23T04:56:18;41.10;;;30.10;;
17482;SDS011;8858;52.308;20.994;2022-10-23T04:58:59;44.37;;;31.80;;
17482;SDS011;8858;52.308;20.994;2022-10-23T05:01:32;40.17;;;28.63;;
17482;SDS011;8858;52.308;20.994;2022-10-23T05:04:03;38.80;;;29.10;;
17482;SDS011;8858;52.308;20.994;2022-10-23T05:06:40;40.63;;;30.80;;
17482;SDS011;8858;52.308;20.994;2022-10-23T05:09:14;42.77;;;29.63;;
17482;SDS011;8858;52.308;20.994;2022-10-23T05:12:12;45.57;;;31.27;;
17482;SDS011;8858;52.308;20.994;2022-10-23T05:14:41;48.07;;;29.27;;
17482;SDS011;8858;52.308;20.994;2022-10-23T05:17:13;42.50;;;30.30;;
17482;SDS011;8858;52.308;20.994;2022-10-23T05:19:46;43.27;;;28.80;;
17482;SDS011;8858;52.308;20.994;2022-10-23T05:22:23;39.33;;;28.83;;
17482;SDS011;8858;52.308;20.994;2022-10-23T05:24:53;38.80;;;29.10;;
17482;SDS011;8858;52.308;20.994;2022-10-23T05:27:25;44.47;;;29.57;;
17482;SDS011;8858;52.308;20.994;2022-10-23T05:29:54;41.47;;;29.23;;
17482;SDS011;8858;52.308;20.994;2022-10-23T05:32:27;41.80;;;28.87;;
17482;SDS011;8858;52.308;20.994;2022-10-23T05:35:00;36.13;;;27.97;;
17482;SDS011;8858;52.308;20.994;2022-10-23T05:37:35;37.20;;;29.33;;
17482;SDS011;8858;52.308;20.994;2022-10-23T05:40:15;38.50;;;26.83;;
17482;SDS011;8858;52.308;20.994;2022-10-23T05:42:46;39.70;;;27.20;;
17482;SDS011;8858;52.308;20.994;2022-10-23T05:45:20;39.43;;;26.43;;
17482;SDS011;8858;52.308;20.994;2022-10-23T05:48:07;40.57;;;28.07;;
17482;SDS011;8858;52.308;20.994;2022-10-23T05:51:10;43.23;;;27.93;;
17482;SDS011;8858;52.308;20.994;2022-10-23T05:53:53;40.37;;;27.43;;
17482;SDS011;8858;52.308;20.994;2022-10-23T05:56:34;45.20;;;28.47;;
17482;SDS011;8858;52.308;20.994;2022-10-23T05:59:19;40.20;;;28.23;;
17482;SDS011;8858;52.308;20.994;2022-10-23T06:01:56;42.40;;;28.50;;
17482;SDS011;8858;52.308;20.994;2022-10-23T06:04:57;42.30;;;26.67;;
17482;SDS011;8858;52.308;20.994;2022-10-23T06:07:28;41.67;;;27.70;;
17482;SDS011;8858;52.308;20.994;2022-10-23T06:10:06;38.10;;;24.10;;
17482;SDS011;8858;52.308;20.994;2022-10-23T06:12:40;39.17;;;25.97;;
17482;SDS011;8858;52.308;20.994;2022-10-23T06:15:13;37.37;;;25.60;;
17482;SDS011;8858;52.308;20.994;2022-10-23T06:18:05;39.30;;;24.87;;
17482;SDS011;8858;52.308;20.994;2022-10-23T06:20:38;36.30;;;24.93;;
17482;SDS011;8858;52.308;20.994;2022-10-23T06:23:20;38.57;;;24.97;;
17482;SDS011;8858;52.308;20.994;2022-10-23T06:26:11;41.37;;;25.50;;
17482;SDS011;8858;52.308;20.994;2022-10-23T06:29:00;36.30;;;24.47;;
17482;SDS011;8858;52.308;20.994;2022-10-23T06:31:29;37.17;;;24.27;;
17482;SDS011;8858;52.308;20.994;2022-10-23T06:33:58;35.87;;;22.83;;
17482;SDS011;8858;52.308;20.994;2022-10-23T06:36:28;34.07;;;22.70;;
17482;SDS011;8858;52.308;20.994;2022-10-23T06:39:22;33.27;;;22.50;;
17482;SDS011;8858;52.308;20.994;2022-10-23T06:42:11;34.73;;;23.67;;
17482;SDS011;8858;52.308;20.994;2022-10-23T06:45:06;36.60;;;23.73;;
17482;SDS011;8858;52.308;20.994;2022-10-23T06:48:07;36.03;;;23.17;;
17482;SDS011;8858;52.308;20.994;2022-10-23T06:51:12;38.43;;;22.63;;
17482;SDS011;8858;52.308;20.994;2022-10-23T06:53:43;33.77;;;22.33;;
17482;SDS011;8858;52.308;20.994;2022-10-23T06:56:32;35.60;;;22.60;;
17482;SDS011;8858;52.308;20.994;2022-10-23T06:59:05;33.90;;;22.30;;
17482;SDS011;8858;52.308;20.994;2022-10-23T07:01:36;33.97;;;21.77;;
17482;SDS011;8858;52.308;20.994;2022-10-23T07:04:05;34.03;;;22.57;;
17482;SDS011;8858;52.308;20.994;2022-10-23T07:06:38;34.07;;;23.27;;
17482;SDS011;8858;52.308;20.994;2022-10-23T07:09:07;31.03;;;22.90;;
17482;SDS011;8858;52.308;20.994;2022-10-23T07:11:59;33.67;;;24.03;;
17482;SDS011;8858;52.308;20.994;2022-10-23T07:14:44;31.57;;;23.00;;
17482;SDS011;8858;52.308;20.994;2022-10-23T07:17:14;36.43;;;23.40;;
17482;SDS011;8858;52.308;20.994;2022-10-23T07:19:43;32.10;;;21.27;;
17482;SDS011;8858;52.308;20.994;2022-10-23T07:22:14;30.30;;;21.63;;
17482;SDS011;8858;52.308;20.994;2022-10-23T07:25:04;32.17;;;22.43;;
17482;SDS011;8858;52.308;20.994;2022-10-23T07:27:36;33.70;;;21.53;;
17482;SDS011;8858;52.308;20.994;2022-10-23T07:30:10;29.17;;;21.90;;
17482;SDS011;8858;52.308;20.994;2022-10-23T07:32:50;30.00;;;21.50;;
17482;SDS011;8858;52.308;20.994;2022-10-23T07:35:24;34.73;;;22.37;;
17482;SDS011;8858;52.308;20.994;2022-10-23T07:37:58;40.70;;;21.73;;
17482;SDS011;8858;52.308;20.994;2022-10-23T07:40:30;35.43;;;23.27;;
17482;SDS011;8858;52.308;20.994;2022-10-23T07:43:01;30.60;;;20.17;;
17482;SDS011;8858;52.308;20.994;2022-10-23T07:45:32;28.90;;;22.10;;
17482;SDS011;8858;52.308;20.994;2022-10-23T07:48:07;31.33;;;22.70;;
17482;SDS011;8858;52.308;20.994;2022-10-23T07:50:56;29.57;;;21.27;;
17482;SDS011;8858;52.308;20.994;2022-10-23T07:53:28;28.63;;;20.50;;
17482;SDS011;8858;52.308;20.994;2022-10-23T07:56:08;28.10;;;20.60;;
17482;SDS011;8858;52.308;20.994;2022-10-23T07:59:02;28.47;;;20.57;;
17482;SDS011;8858;52.308;20.994;2022-10-23T08:01:33;28.10;;;20.63;;
17482;SDS011;8858;52.308;20.994;2022-10-23T08:04:04;26.97;;;20.20;;
17482;SDS011;8858;52.308;20.994;2022-10-23T08:06:45;27.97;;;20.63;;
17482;SDS011;8858;52.308;20.994;2022-10-23T08:09:14;36.90;;;28.40;;
17482;SDS011;8858;52.308;20.994;2022-10-23T08:11:44;30.53;;;21.53;;
17482;SDS011;8858;52.308;20.994;2022-10-23T08:14:17;28.63;;;20.70;;
17482;SDS011;8858;52.308;20.994;2022-10-23T08:16:48;29.50;;;20.07;;
17482;SDS011;8858;52.308;20.994;2022-10-23T08:19:16;28.27;;;20.80;;
17482;SDS011;8858;52.308;20.994;2022-10-23T08:21:48;29.83;;;22.17;;
17482;SDS011;8858;52.308;20.994;2022-10-23T08:24:23;42.70;;;28.47;;
17482;SDS011;8858;52.308;20.994;2022-10-23T08:26:52;25.43;;;19.97;;
17482;SDS011;8858;52.308;20.994;2022-10-23T08:29:22;28.80;;;21.13;;
17482;SDS011;8858;52.308;20.994;2022-10-23T08:31:54;32.47;;;21.87;;
17482;SDS011;8858;52.308;20.994;2022-10-23T08:34:31;29.13;;;20.73;;
17482;SDS011;8858;52.308;20.994;2022-10-23T08:37:01;24.87;;;20.53;;
17482;SDS011;8858;52.308;20.994;2022-10-23T08:39:32;27.60;;;20.77;;
17482;SDS011;8858;52.308;20.994;2022-10-23T08:42:15;26.60;;;20.47;;
17482;SDS011;8858;52.308;20.994;2022-10-23T08:44:50;26.40;;;20.47;;
17482;SDS011;8858;52.308;20.994;2022-10-23T08:47:27;29.73;;;21.10;;
17482;SDS011;8858;52.308;20.994;2022-10-23T08:50:09;27.10;;;19.60;;
17482;SDS011;8858;52.308;20.994;2022-10-23T08:52:43;26.13;;;20.17;;
17482;SDS011;8858;52.308;20.994;2022-10-23T08:55:16;30.43;;;21.57;;
17482;SDS011;8858;52.308;20.994;2022-10-23T08:57:52;31.93;;;21.37;;
17482;SDS011;8858;52.308;20.994;2022-10-23T09:00:26;30.90;;;20.80;;
17482;SDS011;8858;52.308;20.994;2022-10-23T09:02:59;30.93;;;21.80;;
17482;SDS011;8858;52.308;20.994;2022-10-23T09:05:30;28.73;;;21.77;;
17482;SDS011;8858;52.308;20.994;2022-10-23T09:08:05;33.83;;;22.07;;
17482;SDS011;8858;52.308;20.994;2022-10-23T09:10:44;29.33;;;20.50;;
17482;SDS011;8858;52.308;20.994;2022-10-23T09:13:55;27.10;;;21.50;;
17482;SDS011;8858;52.308;20.994;2022-10-23T09:16:41;33.43;;;21.67;;
17482;SDS011;8858;52.308;20.994;2022-10-23T09:19:18;35.03;;;23.13;;
17482;SDS011;8858;52.308;20.994;2022-10-23T09:21:51;29.60;;;22.17;;
17482;SDS011;8858;52.308;20.994;2022-10-23T09:24:23;35.10;;;22.80;;
17482;SDS011;8858;52.308;20.994;2022-10-23T09:26:57;33.40;;;23.87;;
17482;SDS011;8858;52.308;20.994;2022-10-23T09:29:36;35.33;;;22.53;;
17482;SDS011;8858;52.308;20.994;2022-10-23T09:32:13;29.03;;;22.27;;
17482;SDS011;8858;52.308;20.994;2022-10-23T09:34:51;28.10;;;22.77;;
17482;SDS011;8858;52.308;20.994;2022-10-23T09:37:23;27.03;;;20.87;;
17482;SDS011;8858;52.308;20.994;2022-10-23T09:42:52;27.23;;;20.90;;
17482;SDS011;8858;52.308;20.994;2022-10-23T09:45:27;26.47;;;19.77;;
17482;SDS011;8858;52.308;20.994;2022-10-23T09:48:05;24.83;;;20.00;;
17482;SDS011;8858;52.308;20.994;2022-10-23T09:50:50;28.10;;;19.63;;
17482;SDS011;8858;52.308;20.994;2022-10-23T09:53:23;25.00;;;19.20;;
17482;SDS011;8858;52.308;20.994;2022-10-23T09:55:56;23.40;;;19.10;;
17482;SDS011;8858;52.308;20.994;2022-10-23T09:58:33;26.73;;;19.40;;
17482;SDS011;8858;52.308;20.994;2022-10-23T10:01:04;23.33;;;18.90;;
17482;SDS011;8858;52.308;20.994;2022-10-23T10:03:50;25.87;;;19.40;;
17482;SDS011;8858;52.308;20.994;2022-10-23T10:06:25;22.67;;;18.83;;
17482;SDS011;8858;52.308;20.994;2022-10-23T10:08:56;27.33;;;20.57;;
17482;SDS011;8858;52.308;20.994;2022-10-23T10:11:29;29.80;;;20.10;;
17482;SDS011;8858;52.308;20.994;2022-10-23T10:17:04;23.43;;;18.50;;
17482;SDS011;8858;52.308;20.994;2022-10-23T10:19:44;27.27;;;19.50;;
17482;SDS011;8858;52.308;20.994;2022-10-23T10:22:34;22.47;;;18.50;;
17482;SDS011;8858;52.308;20.994;2022-10-23T10:25:11;26.03;;;19.10;;
17482;SDS011;8858;52.308;20.994;2022-10-23T10:27:49;28.63;;;20.17;;
17482;SDS011;8858;52.308;20.994;2022-10-23T10:30:32;26.47;;;20.33;;
17482;SDS011;8858;52.308;20.994;2022-10-23T10:33:08;29.57;;;21.23;;
17482;SDS011;8858;52.308;20.994;2022-10-23T10:35:44;28.53;;;22.50;;
17482;SDS011;8858;52.308;20.994;2022-10-23T10:38:31;26.07;;;20.57;;
17482;SDS011;8858;52.308;20.994;2022-10-23T10:41:19;26.23;;;20.13;;
17482;SDS011;8858;52.308;20.994;2022-10-23T10:44:00;26.20;;;18.50;;
17482;SDS011;8858;52.308;20.994;2022-10-23T10:46:48;26.33;;;18.93;;
17482;SDS011;8858;52.308;20.994;2022-10-23T10:49:26;22.77;;;18.40;;
17482;SDS011;8858;52.308;20.994;2022-10-23T10:52:17;23.53;;;17.70;;
17482;SDS011;8858;52.308;20.994;2022-10-23T10:54:57;20.97;;;16.60;;
17482;SDS011;8858;52.308;20.994;2022-10-23T10:57:40;21.23;;;15.83;;
17482;SDS011;8858;52.308;20.994;2022-10-23T11:00:14;21.93;;;16.40;;
17482;SDS011;8858;52.308;20.994;2022-10-23T11:02:48;20.30;;;15.37;;
17482;SDS011;8858;52.308;20.994;2022-10-23T11:05:25;22.40;;;18.50;;
17482;SDS011;8858;52.308;20.994;2022-10-23T11:07:59;22.17;;;14.87;;
17482;SDS011;8858;52.308;20.994;2022-10-23T11:10:32;21.83;;;13.90;;
17482;SDS011;8858;52.308;20.994;2022-10-23T11:13:05;20.93;;;17.40;;
17482;SDS011;8858;52.308;20.994;2022-10-23T11:15:49;16.10;;;12.93;;
17482;SDS011;8858;52.308;20.994;2022-10-23T11:18:21;14.33;;;12.80;;
17482;SDS011;8858;52.308;20.994;2022-10-23T11:20:58;20.47;;;12.37;;
17482;SDS011;8858;52.308;20.994;2022-10-23T11:23:47;14.73;;;11.83;;
17482;SDS011;8858;52.308;20.994;2022-10-23T11:27:04;14.67;;;12.30;;
17482;SDS011;8858;52.308;20.994;2022-10-23T11:29:54;17.23;;;11.80;;
17482;SDS011;8858;52.308;20.994;2022-10-23T11:32:50;13.90;;;12.50;;
17482;SDS011;8858;52.308;20.994;2022-10-23T11:35:51;14.03;;;12.50;;
17482;SDS011;8858;52.308;20.994;2022-10-23T11:38:31;14.77;;;12.57;;
17482;SDS011;8858;52.308;20.994;2022-10-23T11:41:02;14.33;;;12.80;;
17482;SDS011;8858;52.308;20.994;2022-10-23T11:43:46;14.63;;;12.80;;
17482;SDS011;8858;52.308;20.994;2022-10-23T11:46:27;13.73;;;11.60;;
17482;SDS011;8858;52.308;20.994;2022-10-23T11:49:00;20.00;;;13.47;;
17482;SDS011;8858;52.308;20.994;2022-10-23T11:51:32;16.30;;;12.60;;
17482;SDS011;8858;52.308;20.994;2022-10-23T11:54:21;15.13;;;12.00;;
17482;SDS011;8858;52.308;20.994;2022-10-23T11:56:54;14.30;;;11.45;;
17482;SDS011;8858;52.308;20.994;2022-10-23T11:59:39;13.07;;;11.67;;
17482;SDS011;8858;52.308;20.994;2022-10-23T12:02:21;13.52;;;11.60;;
17482;SDS011;8858;52.308;20.994;2022-10-23T12:04:59;14.88;;;12.25;;
17482;SDS011;8858;52.308;20.994;2022-10-23T12:07:32;13.40;;;11.60;;
17482;SDS011;8858;52.308;20.994;2022-10-23T12:10:06;12.52;;;11.32;;
17482;SDS011;8858;52.308;20.994;2022-10-23T12:12:53;13.82;;;12.43;;
17482;SDS011;8858;52.308;20.994;2022-10-23T12:15:25;16.35;;;12.93;;
17482;SDS011;8858;52.308;20.994;2022-10-23T12:17:54;15.10;;;12.40;;
17482;SDS011;8858;52.308;20.994;2022-10-23T12:20:35;15.00;;;13.30;;
17482;SDS011;8858;52.308;20.994;2022-10-23T12:23:22;16.25;;;13.18;;
17482;SDS011;8858;52.308;20.994;2022-10-23T12:26:17;16.23;;;13.25;;
17482;SDS011;8858;52.308;20.994;2022-10-23T12:28:56;17.57;;;14.40;;
17482;SDS011;8858;52.308;20.994;2022-10-23T12:31:36;19.13;;;14.97;;
17482;SDS011;8858;52.308;20.994;2022-10-23T12:34:19;17.37;;;14.60;;
17482;SDS011;8858;52.308;20.994;2022-10-23T12:37:00;19.90;;;14.83;;
17482;SDS011;8858;52.308;20.994;2022-10-23T12:39:42;18.93;;;14.83;;
17482;SDS011;8858;52.308;20.994;2022-10-23T12:42:14;17.20;;;15.03;;
17482;SDS011;8858;52.308;20.994;2022-10-23T12:44:56;17.63;;;14.97;;
17482;SDS011;8858;52.308;20.994;2022-10-23T12:47:28;16.77;;;14.90;;
17482;SDS011;8858;52.308;20.994;2022-10-23T12:49:57;21.85;;;15.05;;
17482;SDS011;8858;52.308;20.994;2022-10-23T12:52:26;17.63;;;15.43;;
17482;SDS011;8858;52.308;20.994;2022-10-23T12:54:57;19.67;;;16.17;;
17482;SDS011;8858;52.308;20.994;2022-10-23T12:57:27;17.97;;;15.73;;
17482;SDS011;8858;52.308;20.994;2022-10-23T12:59:57;22.10;;;16.23;;
17482;SDS011;8858;52.308;20.994;2022-10-23T13:02:30;18.97;;;16.30;;
17482;SDS011;8858;52.308;20.994;2022-10-23T13:04:59;20.43;;;17.80;;
17482;SDS011;8858;52.308;20.994;2022-10-23T13:07:31;17.73;;;15.90;;
17482;SDS011;8858;52.308;20.994;2022-10-23T13:10:03;18.27;;;16.37;;
17482;SDS011;8858;52.308;20.994;2022-10-23T13:12:46;18.07;;;16.37;;
17482;SDS011;8858;52.308;20.994;2022-10-23T13:15:24;17.83;;;16.23;;
17482;SDS011;8858;52.308;20.994;2022-10-23T13:18:00;20.27;;;15.87;;
17482;SDS011;8858;52.308;20.994;2022-10-23T13:20:30;17.80;;;15.63;;
17482;SDS011;8858;52.308;20.994;2022-10-23T13:23:09;16.83;;;14.93;;
17482;SDS011;8858;52.308;20.994;2022-10-23T13:25:51;17.93;;;14.77;;
17482;SDS011;8858;52.308;20.994;2022-10-23T13:28:23;16.37;;;14.67;;
17482;SDS011;8858;52.308;20.994;2022-10-23T13:30:57;16.87;;;14.77;;
17482;SDS011;8858;52.308;20.994;2022-10-23T13:33:35;16.07;;;14.07;;
17482;SDS011;8858;52.308;20.994;2022-10-23T13:36:18;16.27;;;14.13;;
17482;SDS011;8858;52.308;20.994;2022-10-23T13:39:00;16.53;;;14.93;;
17482;SDS011;8858;52.308;20.994;2022-10-23T13:41:33;18.17;;;14.63;;
17482;SDS011;8858;52.308;20.994;2022-10-23T13:44:07;19.67;;;15.33;;
17482;SDS011;8858;52.308;20.994;2022-10-23T13:46:39;17.57;;;14.93;;
17482;SDS011;8858;52.308;20.994;2022-10-23T13:49:09;15.97;;;14.30;;
17482;SDS011;8858;52.308;20.994;2022-10-23T13:51:39;16.13;;;14.30;;
17482;SDS011;8858;52.308;20.994;2022-10-23T13:54:14;17.00;;;13.97;;
17482;SDS011;8858;52.308;20.994;2022-10-23T13:56:44;20.27;;;14.70;;
17482;SDS011;8858;52.308;20.994;2022-10-23T13:59:13;16.97;;;15.00;;
17482;SDS011;8858;52.308;20.994;2022-10-23T14:01:44;16.67;;;14.73;;
17482;SDS011;8858;52.308;20.994;2022-10-23T14:04:15;16.57;;;14.87;;
17482;SDS011;8858;52.308;20.994;2022-10-23T14:06:45;17.47;;;15.43;;
17482;SDS011;8858;52.308;20.994;2022-10-23T14:09:16;19.23;;;16.00;;
17482;SDS011;8858;52.308;20.994;2022-10-23T14:11:45;16.80;;;15.00;;
17482;SDS011;8858;52.308;20.994;2022-10-23T14:14:13;18.93;;;16.33;;
17482;SDS011;8858;52.308;20.994;2022-10-23T14:16:42;17.70;;;15.90;;
17482;SDS011;8858;52.308;20.994;2022-10-23T14:19:11;18.77;;;15.30;;
17482;SDS011;8858;52.308;20.994;2022-10-23T14:21:41;18.13;;;16.27;;
17482;SDS011;8858;52.308;20.994;2022-10-23T14:24:09;19.50;;;16.10;;
17482;SDS011;8858;52.308;20.994;2022-10-23T14:26:37;18.70;;;15.80;;
17482;SDS011;8858;52.308;20.994;2022-10-23T14:29:05;18.87;;;15.83;;
17482;SDS011;8858;52.308;20.994;2022-10-23T14:31:39;19.13;;;17.13;;
17482;SDS011;8858;52.308;20.994;2022-10-23T14:34:07;17.93;;;15.90;;
17482;SDS011;8858;52.308;20.994;2022-10-23T14:36:35;20.53;;;16.40;;
17482;SDS011;8858;52.308;20.994;2022-10-23T14:39:17;18.93;;;16.33;;
17482;SDS011;8858;52.308;20.994;2022-10-23T14:41:45;17.97;;;16.07;;
17482;SDS011;8858;52.308;20.994;2022-10-23T14:44:17;16.27;;;14.47;;
17482;SDS011;8858;52.308;20.994;2022-10-23T14:46:48;16.97;;;15.23;;
17482;SDS011;8858;52.308;20.994;2022-10-23T14:49:17;16.27;;;14.60;;
17482;SDS011;8858;52.308;20.994;2022-10-23T14:51:45;14.73;;;13.30;;
17482;SDS011;8858;52.308;20.994;2022-10-23T14:54:14;15.57;;;13.03;;
17482;SDS011;8858;52.308;20.994;2022-10-23T14:56:44;14.63;;;13.10;;
17482;SDS011;8858;52.308;20.994;2022-10-23T14:59:13;14.60;;;13.13;;
17482;SDS011;8858;52.308;20.994;2022-10-23T15:01:45;14.67;;;13.20;;
17482;SDS011;8858;52.308;20.994;2022-10-23T15:04:14;15.33;;;11.80;;
17482;SDS011;8858;52.308;20.994;2022-10-23T15:06:43;16.23;;;12.40;;
17482;SDS011;8858;52.308;20.994;2022-10-23T15:09:13;13.87;;;12.23;;
17482;SDS011;8858;52.308;20.994;2022-10-23T15:11:46;13.33;;;12.10;;
17482;SDS011;8858;52.308;20.994;2022-10-23T15:14:17;13.70;;;11.90;;
17482;SDS011;8858;52.308;20.994;2022-10-23T15:16:45;14.77;;;12.83;;
17482;SDS011;8858;52.308;20.994;2022-10-23T15:19:14;14.77;;;13.17;;
17482;SDS011;8858;52.308;20.994;2022-10-23T15:21:44;15.73;;;11.93;;